sensor_id;sensor_type;location;lat;lon;timestamp;P1;durP1;ratioP1;P2;durP2;ratioP2
57311;SDS011;43154;50.966;18.316;2023-02-28T00:02:23;15.00;;;6.20;;
57311;SDS011;43154;50.966;18.316;2023-02-28T00:04:50;15.00;;;5.90;;
57311;SDS011;43154;50.966;18.316;2023-02-28T00:07:18;16.00;;;6.80;;
57311;SDS011;43154;50.966;18.316;2023-02-28T00:09:44;14.80;;;6.30;;
57311;SDS011;43154;50.966;18.316;2023-02-28T00:12:13;16.20;;;6.50;;
57311;SDS011;43154;50.966;18.316;2023-02-28T00:14:40;14.50;;;6.20;;
57311;SDS011;43154;50.966;18.316;2023-02-28T00:17:06;15.40;;;6.70;;
57311;SDS011;43154;50.966;18.316;2023-02-28T00:19:32;16.30;;;6.50;;
57311;SDS011;43154;50.966;18.316;2023-02-28T00:21:59;14.90;;;5.80;;
57311;SDS011;43154;50.966;18.316;2023-02-28T00:24:24;15.20;;;6.90;;
57311;SDS011;43154;50.966;18.316;2023-02-28T00:26:51;15.10;;;7.10;;
57311;SDS011;43154;50.966;18.316;2023-02-28T00:29:17;15.90;;;7.30;;
57311;SDS011;43154;50.966;18.316;2023-02-28T00:31:44;15.20;;;6.70;;
57311;SDS011;43154;50.966;18.316;2023-02-28T00:34:18;16.90;;;7.50;;
57311;SDS011;43154;50.966;18.316;2023-02-28T00:36:45;17.10;;;7.50;;
57311;SDS011;43154;50.966;18.316;2023-02-28T00:39:15;18.70;;;8.20;;
57311;SDS011;43154;50.966;18.316;2023-02-28T00:41:41;19.30;;;7.80;;
57311;SDS011;43154;50.966;18.316;2023-02-28T00:44:07;18.10;;;8.30;;
57311;SDS011;43154;50.966;18.316;2023-02-28T00:46:33;17.90;;;8.40;;
57311;SDS011;43154;50.966;18.316;2023-02-28T00:48:59;22.30;;;9.80;;
57311;SDS011;43154;50.966;18.316;2023-02-28T00:51:24;21.70;;;10.10;;
57311;SDS011;43154;50.966;18.316;2023-02-28T00:53:53;20.20;;;9.10;;
57311;SDS011;43154;50.966;18.316;2023-02-28T00:56:19;19.30;;;8.50;;
57311;SDS011;43154;50.966;18.316;2023-02-28T00:58:46;19.40;;;9.40;;
57311;SDS011;43154;50.966;18.316;2023-02-28T01:01:12;21.40;;;10.30;;
57311;SDS011;43154;50.966;18.316;2023-02-28T01:03:39;24.40;;;10.70;;
57311;SDS011;43154;50.966;18.316;2023-02-28T01:06:08;17.70;;;8.20;;
57311;SDS011;43154;50.966;18.316;2023-02-28T01:08:34;17.80;;;8.10;;
57311;SDS011;43154;50.966;18.316;2023-02-28T01:11:06;17.90;;;8.60;;
57311;SDS011;43154;50.966;18.316;2023-02-28T01:13:34;22.10;;;9.70;;
57311;SDS011;43154;50.966;18.316;2023-02-28T01:16:00;21.90;;;10.10;;
57311;SDS011;43154;50.966;18.316;2023-02-28T01:18:28;20.30;;;9.90;;
57311;SDS011;43154;50.966;18.316;2023-02-28T01:20:54;21.50;;;10.20;;
57311;SDS011;43154;50.966;18.316;2023-02-28T01:23:21;21.80;;;10.20;;
57311;SDS011;43154;50.966;18.316;2023-02-28T01:25:50;22.40;;;10.30;;
57311;SDS011;43154;50.966;18.316;2023-02-28T01:28:16;26.70;;;11.50;;
57311;SDS011;43154;50.966;18.316;2023-02-28T01:30:42;22.50;;;11.10;;
57311;SDS011;43154;50.966;18.316;2023-02-28T01:33:07;28.20;;;12.40;;
57311;SDS011;43154;50.966;18.316;2023-02-28T01:35:34;32.10;;;13.50;;
57311;SDS011;43154;50.966;18.316;2023-02-28T01:38:01;31.90;;;13.30;;
57311;SDS011;43154;50.966;18.316;2023-02-28T01:40:29;31.80;;;12.90;;
57311;SDS011;43154;50.966;18.316;2023-02-28T01:42:56;32.90;;;13.80;;
57311;SDS011;43154;50.966;18.316;2023-02-28T01:45:24;30.70;;;13.40;;
57311;SDS011;43154;50.966;18.316;2023-02-28T01:48:00;30.00;;;12.40;;
57311;SDS011;43154;50.966;18.316;2023-02-28T01:50:30;28.10;;;12.10;;
57311;SDS011;43154;50.966;18.316;2023-02-28T01:53:02;29.00;;;12.00;;
57311;SDS011;43154;50.966;18.316;2023-02-28T01:55:31;31.30;;;12.90;;
57311;SDS011;43154;50.966;18.316;2023-02-28T01:58:00;32.00;;;13.30;;
57311;SDS011;43154;50.966;18.316;2023-02-28T02:00:28;26.80;;;11.00;;
57311;SDS011;43154;50.966;18.316;2023-02-28T02:03:01;27.30;;;11.90;;
57311;SDS011;43154;50.966;18.316;2023-02-28T02:05:32;27.00;;;11.10;;
57311;SDS011;43154;50.966;18.316;2023-02-28T02:08:05;22.40;;;10.10;;
57311;SDS011;43154;50.966;18.316;2023-02-28T02:10:36;26.00;;;10.60;;
57311;SDS011;43154;50.966;18.316;2023-02-28T02:13:11;24.60;;;10.60;;
57311;SDS011;43154;50.966;18.316;2023-02-28T02:18:52;26.40;;;11.30;;
57311;SDS011;43154;50.966;18.316;2023-02-28T02:38:30;31.80;;;12.10;;
57311;SDS011;43154;50.966;18.316;2023-02-28T02:44:11;30.70;;;12.40;;
57311;SDS011;43154;50.966;18.316;2023-02-28T02:46:45;28.60;;;11.20;;
57311;SDS011;43154;50.966;18.316;2023-02-28T02:49:15;28.00;;;11.50;;
57311;SDS011;43154;50.966;18.316;2023-02-28T02:51:52;28.70;;;12.20;;
57311;SDS011;43154;50.966;18.316;2023-02-28T02:54:22;27.20;;;11.30;;
57311;SDS011;43154;50.966;18.316;2023-02-28T02:56:55;24.90;;;10.90;;
57311;SDS011;43154;50.966;18.316;2023-02-28T02:59:24;25.50;;;11.10;;
57311;SDS011;43154;50.966;18.316;2023-02-28T03:08:54;22.20;;;10.20;;
57311;SDS011;43154;50.966;18.316;2023-02-28T03:11:20;24.20;;;10.60;;
57311;SDS011;43154;50.966;18.316;2023-02-28T03:24:52;25.70;;;11.10;;
57311;SDS011;43154;50.966;18.316;2023-02-28T03:27:54;26.20;;;11.20;;
57311;SDS011;43154;50.966;18.316;2023-02-28T03:30:39;23.70;;;9.80;;
57311;SDS011;43154;50.966;18.316;2023-02-28T03:33:16;24.80;;;9.90;;
57311;SDS011;43154;50.966;18.316;2023-02-28T03:35:47;25.00;;;10.50;;
57311;SDS011;43154;50.966;18.316;2023-02-28T03:41:10;25.80;;;11.00;;
57311;SDS011;43154;50.966;18.316;2023-02-28T03:43:40;26.60;;;10.90;;
57311;SDS011;43154;50.966;18.316;2023-02-28T03:46:11;30.10;;;12.20;;
57311;SDS011;43154;50.966;18.316;2023-02-28T03:48:43;30.80;;;11.70;;
57311;SDS011;43154;50.966;18.316;2023-02-28T03:51:12;30.60;;;11.90;;
57311;SDS011;43154;50.966;18.316;2023-02-28T03:56:24;24.90;;;10.10;;
57311;SDS011;43154;50.966;18.316;2023-02-28T04:04:07;28.90;;;10.70;;
57311;SDS011;43154;50.966;18.316;2023-02-28T04:06:36;28.40;;;11.20;;
57311;SDS011;43154;50.966;18.316;2023-02-28T04:09:04;28.10;;;11.40;;
57311;SDS011;43154;50.966;18.316;2023-02-28T04:11:44;27.90;;;11.30;;
57311;SDS011;43154;50.966;18.316;2023-02-28T04:14:13;25.70;;;10.40;;
57311;SDS011;43154;50.966;18.316;2023-02-28T04:16:40;27.40;;;10.60;;
57311;SDS011;43154;50.966;18.316;2023-02-28T04:19:08;22.80;;;10.00;;
57311;SDS011;43154;50.966;18.316;2023-02-28T04:21:40;24.50;;;10.20;;
57311;SDS011;43154;50.966;18.316;2023-02-28T04:24:16;27.10;;;11.00;;
57311;SDS011;43154;50.966;18.316;2023-02-28T04:26:47;25.50;;;10.30;;
57311;SDS011;43154;50.966;18.316;2023-02-28T04:29:22;25.30;;;10.20;;
57311;SDS011;43154;50.966;18.316;2023-02-28T04:31:52;24.40;;;10.10;;
57311;SDS011;43154;50.966;18.316;2023-02-28T04:36:53;23.40;;;9.80;;
57311;SDS011;43154;50.966;18.316;2023-02-28T04:39:20;23.10;;;9.90;;
57311;SDS011;43154;50.966;18.316;2023-02-28T04:41:48;23.20;;;9.60;;
57311;SDS011;43154;50.966;18.316;2023-02-28T04:44:15;23.40;;;10.10;;
57311;SDS011;43154;50.966;18.316;2023-02-28T04:46:43;23.40;;;9.60;;
57311;SDS011;43154;50.966;18.316;2023-02-28T04:49:11;23.60;;;10.10;;
57311;SDS011;43154;50.966;18.316;2023-02-28T04:51:40;24.00;;;9.60;;
57311;SDS011;43154;50.966;18.316;2023-02-28T04:54:06;21.90;;;9.20;;
57311;SDS011;43154;50.966;18.316;2023-02-28T04:56:32;23.20;;;9.60;;
57311;SDS011;43154;50.966;18.316;2023-02-28T04:59:00;25.30;;;9.90;;
57311;SDS011;43154;50.966;18.316;2023-02-28T05:01:31;21.80;;;9.30;;
57311;SDS011;43154;50.966;18.316;2023-02-28T05:04:00;22.60;;;8.90;;
57311;SDS011;43154;50.966;18.316;2023-02-28T05:06:28;22.40;;;8.90;;
57311;SDS011;43154;50.966;18.316;2023-02-28T05:08:56;21.90;;;9.00;;
57311;SDS011;43154;50.966;18.316;2023-02-28T05:11:26;23.50;;;9.40;;
57311;SDS011;43154;50.966;18.316;2023-02-28T05:14:04;24.20;;;9.50;;
57311;SDS011;43154;50.966;18.316;2023-02-28T05:16:31;23.90;;;9.30;;
57311;SDS011;43154;50.966;18.316;2023-02-28T05:18:58;21.60;;;9.10;;
57311;SDS011;43154;50.966;18.316;2023-02-28T05:21:29;24.10;;;8.80;;
57311;SDS011;43154;50.966;18.316;2023-02-28T05:24:04;20.80;;;8.60;;
57311;SDS011;43154;50.966;18.316;2023-02-28T05:26:34;21.30;;;8.40;;
57311;SDS011;43154;50.966;18.316;2023-02-28T05:29:01;21.70;;;8.70;;
57311;SDS011;43154;50.966;18.316;2023-02-28T05:31:27;21.20;;;8.70;;
57311;SDS011;43154;50.966;18.316;2023-02-28T05:33:54;20.10;;;8.00;;
57311;SDS011;43154;50.966;18.316;2023-02-28T05:36:21;20.90;;;8.10;;
57311;SDS011;43154;50.966;18.316;2023-02-28T05:38:48;20.60;;;7.70;;
57311;SDS011;43154;50.966;18.316;2023-02-28T05:41:18;20.50;;;8.50;;
57311;SDS011;43154;50.966;18.316;2023-02-28T05:43:46;19.70;;;8.10;;
57311;SDS011;43154;50.966;18.316;2023-02-28T05:46:14;22.40;;;8.90;;
57311;SDS011;43154;50.966;18.316;2023-02-28T05:48:41;24.80;;;10.70;;
57311;SDS011;43154;50.966;18.316;2023-02-28T05:51:08;22.60;;;9.10;;
57311;SDS011;43154;50.966;18.316;2023-02-28T05:53:35;21.40;;;8.10;;
57311;SDS011;43154;50.966;18.316;2023-02-28T05:56:01;19.80;;;8.10;;
57311;SDS011;43154;50.966;18.316;2023-02-28T05:58:28;20.70;;;8.60;;
57311;SDS011;43154;50.966;18.316;2023-02-28T06:01:00;20.30;;;8.10;;
57311;SDS011;43154;50.966;18.316;2023-02-28T06:03:45;19.70;;;7.70;;
57311;SDS011;43154;50.966;18.316;2023-02-28T06:06:13;18.30;;;7.70;;
57311;SDS011;43154;50.966;18.316;2023-02-28T06:08:39;19.10;;;7.60;;
57311;SDS011;43154;50.966;18.316;2023-02-28T06:11:05;18.80;;;7.00;;
57311;SDS011;43154;50.966;18.316;2023-02-28T06:13:33;17.80;;;7.10;;
57311;SDS011;43154;50.966;18.316;2023-02-28T06:16:02;19.30;;;7.90;;
57311;SDS011;43154;50.966;18.316;2023-02-28T06:18:33;18.40;;;7.40;;
57311;SDS011;43154;50.966;18.316;2023-02-28T06:21:00;18.80;;;7.70;;
57311;SDS011;43154;50.966;18.316;2023-02-28T06:23:26;19.70;;;7.80;;
57311;SDS011;43154;50.966;18.316;2023-02-28T06:25:54;18.20;;;8.00;;
57311;SDS011;43154;50.966;18.316;2023-02-28T06:28:24;19.50;;;8.00;;
57311;SDS011;43154;50.966;18.316;2023-02-28T06:30:51;18.60;;;7.90;;
57311;SDS011;43154;50.966;18.316;2023-02-28T06:33:19;21.50;;;8.60;;
57311;SDS011;43154;50.966;18.316;2023-02-28T06:35:46;22.10;;;9.10;;
57311;SDS011;43154;50.966;18.316;2023-02-28T06:38:13;25.10;;;9.50;;
57311;SDS011;43154;50.966;18.316;2023-02-28T06:40:40;22.30;;;8.70;;
57311;SDS011;43154;50.966;18.316;2023-02-28T06:43:06;26.30;;;10.10;;
57311;SDS011;43154;50.966;18.316;2023-02-28T06:45:33;26.10;;;10.60;;
57311;SDS011;43154;50.966;18.316;2023-02-28T06:47:59;22.50;;;9.80;;
57311;SDS011;43154;50.966;18.316;2023-02-28T06:50:26;24.60;;;10.00;;
57311;SDS011;43154;50.966;18.316;2023-02-28T06:56:33;26.30;;;11.40;;
57311;SDS011;43154;50.966;18.316;2023-02-28T06:58:59;26.10;;;11.60;;
57311;SDS011;43154;50.966;18.316;2023-02-28T07:01:26;30.50;;;13.00;;
57311;SDS011;43154;50.966;18.316;2023-02-28T07:03:53;30.50;;;13.50;;
57311;SDS011;43154;50.966;18.316;2023-02-28T07:06:23;29.00;;;12.30;;
57311;SDS011;43154;50.966;18.316;2023-02-28T07:08:51;31.30;;;13.80;;
57311;SDS011;43154;50.966;18.316;2023-02-28T07:11:19;37.90;;;14.90;;
57311;SDS011;43154;50.966;18.316;2023-02-28T07:13:48;38.20;;;15.60;;
57311;SDS011;43154;50.966;18.316;2023-02-28T07:16:18;37.80;;;15.10;;
57311;SDS011;43154;50.966;18.316;2023-02-28T07:18:45;41.50;;;16.50;;
57311;SDS011;43154;50.966;18.316;2023-02-28T07:21:12;42.70;;;16.80;;
57311;SDS011;43154;50.966;18.316;2023-02-28T07:23:39;37.60;;;15.60;;
57311;SDS011;43154;50.966;18.316;2023-02-28T07:26:12;34.80;;;15.40;;
57311;SDS011;43154;50.966;18.316;2023-02-28T07:28:43;38.10;;;15.70;;
57311;SDS011;43154;50.966;18.316;2023-02-28T07:31:10;32.10;;;14.00;;
57311;SDS011;43154;50.966;18.316;2023-02-28T07:33:37;29.70;;;12.20;;
57311;SDS011;43154;50.966;18.316;2023-02-28T07:36:06;27.10;;;11.70;;
57311;SDS011;43154;50.966;18.316;2023-02-28T07:38:35;21.80;;;9.80;;
57311;SDS011;43154;50.966;18.316;2023-02-28T07:41:05;22.70;;;9.80;;
57311;SDS011;43154;50.966;18.316;2023-02-28T07:43:31;24.10;;;9.30;;
57311;SDS011;43154;50.966;18.316;2023-02-28T07:46:04;18.90;;;8.50;;
57311;SDS011;43154;50.966;18.316;2023-02-28T07:48:32;21.30;;;9.00;;
57311;SDS011;43154;50.966;18.316;2023-02-28T07:51:01;21.60;;;9.30;;
57311;SDS011;43154;50.966;18.316;2023-02-28T07:53:28;21.70;;;9.30;;
57311;SDS011;43154;50.966;18.316;2023-02-28T07:55:55;23.00;;;9.50;;
57311;SDS011;43154;50.966;18.316;2023-02-28T07:58:24;23.00;;;10.10;;
57311;SDS011;43154;50.966;18.316;2023-02-28T08:00:51;21.90;;;9.20;;
57311;SDS011;43154;50.966;18.316;2023-02-28T08:03:17;21.10;;;8.70;;
57311;SDS011;43154;50.966;18.316;2023-02-28T08:05:44;18.40;;;7.90;;
57311;SDS011;43154;50.966;18.316;2023-02-28T08:08:10;18.60;;;8.30;;
57311;SDS011;43154;50.966;18.316;2023-02-28T08:10:36;19.40;;;8.30;;
57311;SDS011;43154;50.966;18.316;2023-02-28T08:13:05;17.80;;;6.70;;
57311;SDS011;43154;50.966;18.316;2023-02-28T08:15:30;19.70;;;7.80;;
57311;SDS011;43154;50.966;18.316;2023-02-28T08:17:56;18.60;;;7.50;;
57311;SDS011;43154;50.966;18.316;2023-02-28T08:20:23;16.30;;;7.00;;
57311;SDS011;43154;50.966;18.316;2023-02-28T08:22:50;19.70;;;7.20;;
57311;SDS011;43154;50.966;18.316;2023-02-28T08:25:15;15.50;;;7.20;;
57311;SDS011;43154;50.966;18.316;2023-02-28T08:27:41;18.50;;;7.20;;
57311;SDS011;43154;50.966;18.316;2023-02-28T08:30:07;16.00;;;6.30;;
57311;SDS011;43154;50.966;18.316;2023-02-28T08:32:35;15.60;;;6.40;;
57311;SDS011;43154;50.966;18.316;2023-02-28T08:35:01;15.30;;;6.10;;
57311;SDS011;43154;50.966;18.316;2023-02-28T08:37:29;17.40;;;7.30;;
57311;SDS011;43154;50.966;18.316;2023-02-28T08:39:54;21.80;;;9.00;;
57311;SDS011;43154;50.966;18.316;2023-02-28T09:15:18;15.30;;;6.70;;
57311;SDS011;43154;50.966;18.316;2023-02-28T09:17:45;15.30;;;6.70;;
57311;SDS011;43154;50.966;18.316;2023-02-28T09:20:17;15.20;;;6.60;;
57311;SDS011;43154;50.966;18.316;2023-02-28T09:22:46;17.60;;;7.90;;
57311;SDS011;43154;50.966;18.316;2023-02-28T09:25:15;14.90;;;6.90;;
57311;SDS011;43154;50.966;18.316;2023-02-28T09:27:54;15.60;;;7.20;;
57311;SDS011;43154;50.966;18.316;2023-02-28T09:30:26;15.90;;;6.40;;
57311;SDS011;43154;50.966;18.316;2023-02-28T09:32:52;17.00;;;7.50;;
57311;SDS011;43154;50.966;18.316;2023-02-28T09:35:20;15.70;;;6.90;;
57311;SDS011;43154;50.966;18.316;2023-02-28T09:37:51;18.00;;;8.10;;
57311;SDS011;43154;50.966;18.316;2023-02-28T09:40:20;20.20;;;9.00;;
57311;SDS011;43154;50.966;18.316;2023-02-28T09:42:52;18.50;;;8.30;;
57311;SDS011;43154;50.966;18.316;2023-02-28T09:45:30;18.80;;;8.40;;
57311;SDS011;43154;50.966;18.316;2023-02-28T09:48:02;20.00;;;9.50;;
57311;SDS011;43154;50.966;18.316;2023-02-28T09:50:33;18.00;;;8.70;;
57311;SDS011;43154;50.966;18.316;2023-02-28T09:55:45;20.80;;;9.50;;
57311;SDS011;43154;50.966;18.316;2023-02-28T09:58:37;19.80;;;9.10;;
57311;SDS011;43154;50.966;18.316;2023-02-28T10:04:00;22.50;;;11.30;;
57311;SDS011;43154;50.966;18.316;2023-02-28T10:06:36;21.90;;;11.00;;
57311;SDS011;43154;50.966;18.316;2023-02-28T10:09:13;18.50;;;9.20;;
57311;SDS011;43154;50.966;18.316;2023-02-28T10:11:56;21.20;;;10.10;;
57311;SDS011;43154;50.966;18.316;2023-02-28T10:14:30;21.10;;;9.60;;
57311;SDS011;43154;50.966;18.316;2023-02-28T10:17:05;20.90;;;9.40;;
57311;SDS011;43154;50.966;18.316;2023-02-28T10:20:09;19.10;;;9.60;;
57311;SDS011;43154;50.966;18.316;2023-02-28T10:22:35;17.80;;;8.80;;
57311;SDS011;43154;50.966;18.316;2023-02-28T10:25:16;18.60;;;8.60;;
57311;SDS011;43154;50.966;18.316;2023-02-28T10:30:29;19.60;;;9.20;;
57311;SDS011;43154;50.966;18.316;2023-02-28T10:32:59;17.60;;;8.60;;
57311;SDS011;43154;50.966;18.316;2023-02-28T10:35:30;20.20;;;9.40;;
57311;SDS011;43154;50.966;18.316;2023-02-28T10:38:02;18.90;;;9.10;;
57311;SDS011;43154;50.966;18.316;2023-02-28T10:40:40;21.20;;;9.70;;
57311;SDS011;43154;50.966;18.316;2023-02-28T10:45:39;18.60;;;8.40;;
57311;SDS011;43154;50.966;18.316;2023-02-28T10:56:03;18.80;;;9.00;;
57311;SDS011;43154;50.966;18.316;2023-02-28T11:01:23;22.90;;;9.70;;
57311;SDS011;43154;50.966;18.316;2023-02-28T11:03:56;18.70;;;8.50;;
57311;SDS011;43154;50.966;18.316;2023-02-28T11:06:32;18.60;;;9.00;;
57311;SDS011;43154;50.966;18.316;2023-02-28T11:09:04;21.10;;;9.70;;
57311;SDS011;43154;50.966;18.316;2023-02-28T11:11:44;20.40;;;9.50;;
57311;SDS011;43154;50.966;18.316;2023-02-28T11:14:24;18.40;;;9.20;;
57311;SDS011;43154;50.966;18.316;2023-02-28T11:16:52;17.50;;;7.90;;
57311;SDS011;43154;50.966;18.316;2023-02-28T11:19:24;21.00;;;10.00;;
57311;SDS011;43154;50.966;18.316;2023-02-28T11:21:57;24.10;;;11.90;;
57311;SDS011;43154;50.966;18.316;2023-02-28T11:24:28;22.60;;;9.40;;
57311;SDS011;43154;50.966;18.316;2023-02-28T11:26:59;20.90;;;10.10;;
57311;SDS011;43154;50.966;18.316;2023-02-28T11:29:32;19.70;;;9.80;;
57311;SDS011;43154;50.966;18.316;2023-02-28T11:32:12;20.20;;;9.50;;
57311;SDS011;43154;50.966;18.316;2023-02-28T11:35:00;21.40;;;10.00;;
57311;SDS011;43154;50.966;18.316;2023-02-28T11:37:48;19.50;;;9.00;;
57311;SDS011;43154;50.966;18.316;2023-02-28T11:40:18;20.70;;;9.90;;
57311;SDS011;43154;50.966;18.316;2023-02-28T11:45:49;20.30;;;9.50;;
57311;SDS011;43154;50.966;18.316;2023-02-28T11:48:23;20.40;;;10.40;;
57311;SDS011;43154;50.966;18.316;2023-02-28T11:50:57;18.50;;;8.40;;
57311;SDS011;43154;50.966;18.316;2023-02-28T11:53:49;21.20;;;10.20;;
57311;SDS011;43154;50.966;18.316;2023-02-28T11:56:31;18.90;;;9.20;;
57311;SDS011;43154;50.966;18.316;2023-02-28T12:07:26;21.00;;;10.30;;
57311;SDS011;43154;50.966;18.316;2023-02-28T12:10:17;22.90;;;10.30;;
57311;SDS011;43154;50.966;18.316;2023-02-28T12:13:08;21.00;;;10.00;;
57311;SDS011;43154;50.966;18.316;2023-02-28T12:18:48;26.70;;;11.00;;
57311;SDS011;43154;50.966;18.316;2023-02-28T12:24:30;21.50;;;10.50;;
57311;SDS011;43154;50.966;18.316;2023-02-28T12:27:37;18.10;;;9.80;;
57311;SDS011;43154;50.966;18.316;2023-02-28T12:30:13;21.20;;;10.20;;
57311;SDS011;43154;50.966;18.316;2023-02-28T12:32:45;21.00;;;10.70;;
57311;SDS011;43154;50.966;18.316;2023-02-28T12:35:46;23.10;;;10.60;;
57311;SDS011;43154;50.966;18.316;2023-02-28T12:38:21;22.60;;;10.60;;
57311;SDS011;43154;50.966;18.316;2023-02-28T12:41:02;21.30;;;10.80;;
57311;SDS011;43154;50.966;18.316;2023-02-28T12:43:37;26.00;;;11.10;;
57311;SDS011;43154;50.966;18.316;2023-02-28T12:46:12;23.40;;;11.30;;
57311;SDS011;43154;50.966;18.316;2023-02-28T12:48:44;21.50;;;11.40;;
57311;SDS011;43154;50.966;18.316;2023-02-28T12:51:18;20.10;;;11.00;;
57311;SDS011;43154;50.966;18.316;2023-02-28T12:54:04;22.00;;;10.50;;
57311;SDS011;43154;50.966;18.316;2023-02-28T13:00:15;23.60;;;11.60;;
57311;SDS011;43154;50.966;18.316;2023-02-28T13:08:12;22.20;;;10.20;;
57311;SDS011;43154;50.966;18.316;2023-02-28T13:11:00;24.10;;;11.90;;
57311;SDS011;43154;50.966;18.316;2023-02-28T13:13:33;21.20;;;10.50;;
57311;SDS011;43154;50.966;18.316;2023-02-28T13:16:03;24.10;;;11.60;;
57311;SDS011;43154;50.966;18.316;2023-02-28T13:18:35;21.50;;;11.30;;
57311;SDS011;43154;50.966;18.316;2023-02-28T13:21:08;24.90;;;12.50;;
57311;SDS011;43154;50.966;18.316;2023-02-28T13:23:40;21.50;;;11.50;;
57311;SDS011;43154;50.966;18.316;2023-02-28T13:34:39;66.20;;;29.30;;
57311;SDS011;43154;50.966;18.316;2023-02-28T13:40:03;22.10;;;10.80;;
57311;SDS011;43154;50.966;18.316;2023-02-28T13:42:46;24.20;;;12.40;;
57311;SDS011;43154;50.966;18.316;2023-02-28T13:48:02;23.80;;;12.00;;
57311;SDS011;43154;50.966;18.316;2023-02-28T13:50:36;24.00;;;12.30;;
57311;SDS011;43154;50.966;18.316;2023-02-28T13:55:43;24.10;;;12.80;;
57311;SDS011;43154;50.966;18.316;2023-02-28T14:06:37;25.40;;;12.90;;
57311;SDS011;43154;50.966;18.316;2023-02-28T14:11:42;28.50;;;13.90;;
57311;SDS011;43154;50.966;18.316;2023-02-28T14:14:54;26.00;;;13.10;;
57311;SDS011;43154;50.966;18.316;2023-02-28T14:17:07;29.50;;;15.00;;
57311;SDS011;43154;50.966;18.316;2023-02-28T14:19:39;24.90;;;12.70;;
57311;SDS011;43154;50.966;18.316;2023-02-28T14:22:18;24.70;;;12.70;;
57311;SDS011;43154;50.966;18.316;2023-02-28T14:25:13;22.80;;;12.30;;
57311;SDS011;43154;50.966;18.316;2023-02-28T14:36:00;24.30;;;12.70;;
57311;SDS011;43154;50.966;18.316;2023-02-28T14:38:36;26.80;;;12.60;;
57311;SDS011;43154;50.966;18.316;2023-02-28T14:41:12;24.90;;;13.60;;
57311;SDS011;43154;50.966;18.316;2023-02-28T14:43:49;31.30;;;14.60;;
57311;SDS011;43154;50.966;18.316;2023-02-28T14:46:18;25.40;;;13.20;;
57311;SDS011;43154;50.966;18.316;2023-02-28T14:48:47;27.00;;;13.10;;
57311;SDS011;43154;50.966;18.316;2023-02-28T14:51:20;24.90;;;12.10;;
57311;SDS011;43154;50.966;18.316;2023-02-28T14:56:23;26.10;;;13.70;;
57311;SDS011;43154;50.966;18.316;2023-02-28T14:58:53;30.10;;;15.70;;
57311;SDS011;43154;50.966;18.316;2023-02-28T15:01:22;30.50;;;14.70;;
57311;SDS011;43154;50.966;18.316;2023-02-28T15:03:56;29.90;;;14.70;;
57311;SDS011;43154;50.966;18.316;2023-02-28T15:06:24;27.50;;;14.40;;
57311;SDS011;43154;50.966;18.316;2023-02-28T15:09:14;27.90;;;14.30;;
57311;SDS011;43154;50.966;18.316;2023-02-28T15:11:44;27.20;;;13.80;;
57311;SDS011;43154;50.966;18.316;2023-02-28T15:14:19;29.50;;;14.30;;
57311;SDS011;43154;50.966;18.316;2023-02-28T15:17:06;27.10;;;13.20;;
57311;SDS011;43154;50.966;18.316;2023-02-28T15:19:34;27.80;;;13.90;;
57311;SDS011;43154;50.966;18.316;2023-02-28T15:22:13;27.90;;;13.80;;
57311;SDS011;43154;50.966;18.316;2023-02-28T15:24:47;27.90;;;14.30;;
57311;SDS011;43154;50.966;18.316;2023-02-28T15:27:40;31.30;;;15.30;;
57311;SDS011;43154;50.966;18.316;2023-02-28T15:30:29;30.00;;;14.10;;
57311;SDS011;43154;50.966;18.316;2023-02-28T15:36:11;31.80;;;15.80;;
57311;SDS011;43154;50.966;18.316;2023-02-28T15:38:52;32.60;;;15.40;;
57311;SDS011;43154;50.966;18.316;2023-02-28T15:41:27;31.10;;;15.10;;
57311;SDS011;43154;50.966;18.316;2023-02-28T15:44:15;31.00;;;15.50;;
57311;SDS011;43154;50.966;18.316;2023-02-28T15:47:05;31.60;;;15.50;;
57311;SDS011;43154;50.966;18.316;2023-02-28T15:49:40;32.30;;;15.50;;
57311;SDS011;43154;50.966;18.316;2023-02-28T15:52:13;37.20;;;16.20;;
57311;SDS011;43154;50.966;18.316;2023-02-28T15:54:44;30.80;;;14.80;;
57311;SDS011;43154;50.966;18.316;2023-02-28T15:57:15;31.50;;;14.90;;
57311;SDS011;43154;50.966;18.316;2023-02-28T15:59:55;36.40;;;17.10;;
57311;SDS011;43154;50.966;18.316;2023-02-28T16:02:30;58.00;;;25.40;;
57311;SDS011;43154;50.966;18.316;2023-02-28T16:07:38;63.80;;;24.20;;
57311;SDS011;43154;50.966;18.316;2023-02-28T16:10:08;50.90;;;21.00;;
57311;SDS011;43154;50.966;18.316;2023-02-28T16:12:39;60.50;;;22.80;;
57311;SDS011;43154;50.966;18.316;2023-02-28T16:15:14;83.30;;;29.30;;
57311;SDS011;43154;50.966;18.316;2023-02-28T16:17:45;58.80;;;24.00;;
57311;SDS011;43154;50.966;18.316;2023-02-28T16:20:15;64.50;;;23.70;;
57311;SDS011;43154;50.966;18.316;2023-02-28T16:22:43;121.00;;;37.50;;
57311;SDS011;43154;50.966;18.316;2023-02-28T16:25:14;101.10;;;32.90;;
57311;SDS011;43154;50.966;18.316;2023-02-28T16:27:41;85.60;;;29.70;;
57311;SDS011;43154;50.966;18.316;2023-02-28T16:30:14;73.40;;;26.10;;
57311;SDS011;43154;50.966;18.316;2023-02-28T16:32:45;68.10;;;24.00;;
57311;SDS011;43154;50.966;18.316;2023-02-28T16:35:12;69.70;;;24.70;;
57311;SDS011;43154;50.966;18.316;2023-02-28T16:37:40;60.20;;;23.30;;
57311;SDS011;43154;50.966;18.316;2023-02-28T16:40:15;60.40;;;24.60;;
57311;SDS011;43154;50.966;18.316;2023-02-28T16:42:43;56.40;;;23.30;;
57311;SDS011;43154;50.966;18.316;2023-02-28T16:45:16;54.60;;;22.00;;
57311;SDS011;43154;50.966;18.316;2023-02-28T16:47:44;53.00;;;22.30;;
57311;SDS011;43154;50.966;18.316;2023-02-28T16:50:21;51.80;;;22.00;;
57311;SDS011;43154;50.966;18.316;2023-02-28T16:52:49;46.90;;;21.20;;
57311;SDS011;43154;50.966;18.316;2023-02-28T16:55:18;48.70;;;20.50;;
57311;SDS011;43154;50.966;18.316;2023-02-28T16:57:44;46.80;;;20.30;;
57311;SDS011;43154;50.966;18.316;2023-02-28T17:00:15;46.10;;;19.40;;
57311;SDS011;43154;50.966;18.316;2023-02-28T17:02:43;46.50;;;19.40;;
57311;SDS011;43154;50.966;18.316;2023-02-28T17:05:11;47.40;;;18.80;;
57311;SDS011;43154;50.966;18.316;2023-02-28T17:07:41;44.60;;;19.00;;
57311;SDS011;43154;50.966;18.316;2023-02-28T17:10:18;45.00;;;18.50;;
57311;SDS011;43154;50.966;18.316;2023-02-28T17:12:45;41.90;;;17.90;;
57311;SDS011;43154;50.966;18.316;2023-02-28T17:15:17;46.60;;;19.30;;
57311;SDS011;43154;50.966;18.316;2023-02-28T17:17:45;47.80;;;19.80;;
57311;SDS011;43154;50.966;18.316;2023-02-28T17:20:23;46.70;;;19.70;;
57311;SDS011;43154;50.966;18.316;2023-02-28T17:22:53;46.70;;;20.00;;
57311;SDS011;43154;50.966;18.316;2023-02-28T17:25:20;50.10;;;21.00;;
57311;SDS011;43154;50.966;18.316;2023-02-28T17:27:47;49.00;;;21.40;;
57311;SDS011;43154;50.966;18.316;2023-02-28T17:30:23;46.10;;;19.60;;
57311;SDS011;43154;50.966;18.316;2023-02-28T17:32:53;37.30;;;15.80;;
57311;SDS011;43154;50.966;18.316;2023-02-28T17:35:21;37.20;;;14.70;;
57311;SDS011;43154;50.966;18.316;2023-02-28T17:37:49;38.90;;;17.10;;
57311;SDS011;43154;50.966;18.316;2023-02-28T17:40:17;40.30;;;17.20;;
57311;SDS011;43154;50.966;18.316;2023-02-28T17:42:46;43.90;;;17.20;;